WetterOnline ( https://www.wetteronline.at )

Wetter aktuell Eisenach

Aktuelles Wetter: Eisenach (312m)

6-stündlich | Neueste Meldungen
Ortszeit Temperatur Wetter
Do, 25.07. 8:00 13.0° C Nebel
Do, 25.07. 2:00 12.5° C wolkenlos
Mi, 24.07. 20:00 19.9° C wolkig
Mi, 24.07. 14:00 19.1° C bedeckt
Mi, 24.07. 8:00 15.9° C bewölkt
Mi, 24.07. 2:00 15.4° C fast wolkenlos
Di, 23.07. 20:00 19.7° C wolkig
Di, 23.07. 14:00 25.0° C leicht bewölkt
Ortszeit Temperatur Wetter
Do, 25.07. 12:00 20.0° C leicht bewölkt
Do, 25.07. 11:50 20.0° C leicht bewölkt
Do, 25.07. 11:40 20.5° C wolkig
Do, 25.07. 11:30 19.7° C leicht bewölkt
Do, 25.07. 11:20 19.7° C leicht bewölkt
Do, 25.07. 11:10 20.4° C leicht bewölkt
Do, 25.07. 11:00 19.8° C leicht bewölkt
Do, 25.07. 10:30 18.6° C leicht bewölkt
Do, 25.07. 10:00 17.6° C fast wolkenlos
Do, 25.07. 9:30 16.2° C wolkenlos
Do, 25.07. 9:00 14.9° C wolkenlos
Ortszeit Relative Feuchte Sichtweite
Do, 25.07. 8:00 87% 35 km
Do, 25.07. 2:00 93% 55 km
Mi, 24.07. 20:00 59% 50 km
Mi, 24.07. 14:00 65% >70 km
Mi, 24.07. 8:00 87% 35 km
Mi, 24.07. 2:00 93% 35 km
Di, 23.07. 20:00 84% 45 km
Di, 23.07. 14:00 46% >70 km
Ortszeit Relative Feuchte Sichtweite
Do, 25.07. 12:00 50% >70 km
Do, 25.07. 11:50 50% -
Do, 25.07. 11:40 54% -
Do, 25.07. 11:30 50% 55 km
Do, 25.07. 11:20 50% -
Do, 25.07. 11:10 54% -
Do, 25.07. 11:00 56% >70 km
Do, 25.07. 10:30 62% 50 km
Do, 25.07. 10:00 69% >70 km
Do, 25.07. 9:30 74% 50 km
Do, 25.07. 9:00 79% 50 km
Ortszeit Niederschlagsmenge Niederschlagsart
Do, 25.07. 8:00 0.0 l/m2 in 12 Std. -
Do, 25.07. 2:00 0.0 l/m2 in 6 Std. -
Mi, 24.07. 20:00 0.1 l/m2 in 12 Std. Sprühregen
Mi, 24.07. 14:00 0.1 l/m2 in 6 Std. Regen
Mi, 24.07. 8:00 2 l/m2 in 12 Std. -
Mi, 24.07. 2:00 2 l/m2 in 6 Std. Regen
Di, 23.07. 20:00 4 l/m2 in 12 Std. Regen
Di, 23.07. 14:00 0.0 l/m2 in 6 Std. -
Ortszeit Niederschlagsmenge Niederschlagsart
Do, 25.07. 12:00 0.0 l/m2 in 1 Std. -
Do, 25.07. 11:50 keine Meldung -
Do, 25.07. 11:40 keine Meldung -
Do, 25.07. 11:30 0.0 l/m2 in 30 Min -
Do, 25.07. 11:20 keine Meldung -
Do, 25.07. 11:10 keine Meldung -
Do, 25.07. 11:00 0.0 l/m2 in 1 Std. -
Do, 25.07. 10:30 0.0 l/m2 in 30 Min -
Do, 25.07. 10:00 0.0 l/m2 in 1 Std. -
Do, 25.07. 9:30 0.0 l/m2 in 30 Min -
Do, 25.07. 9:00 0.0 l/m2 in 1 Std. -
Ortszeit Stärke Spitze Richtung
km/h Bft. km/h Grad Sektor
Do, 25.07. 8:00 2 1 11 310° NW
Do, 25.07. 2:00 2 1 19 210° SW
Mi, 24.07. 20:00 11 2 29 310° NW
Mi, 24.07. 14:00 13 3 28 320° NW
Mi, 24.07. 8:00 9 2 24 310° NW
Mi, 24.07. 2:00 11 2 29 290° W
Di, 23.07. 20:00 4 1 40 320° NW
Di, 23.07. 14:00 14 3 32 240° SW
Ortszeit Stärke Spitze Richtung
km/h Bft. km/h Grad Sektor
Do, 25.07. 12:00 11 2 29 260° W
Do, 25.07. 11:50 11 2 - 260° W
Do, 25.07. 11:40 11 2 - 280° W
Do, 25.07. 11:30 13 3 20 270° W
Do, 25.07. 11:20 13 3 - 270° W
Do, 25.07. 11:10 9 2 - 270° W
Do, 25.07. 11:00 13 3 22 260° W
Do, 25.07. 10:30 9 2 17 250° W
Do, 25.07. 10:00 7 2 15 280° W
Do, 25.07. 9:30 7 2 11 280° W
Do, 25.07. 9:00 4 1 11 290° W
Ortszeit Untergrenze Bedeckung Gattung
total tief tief mittel hoch
Do, 25.07. 8:00 - 0/8 0/8 - - -
Do, 25.07. 2:00 - 0/8 0/8 - - -
Mi, 24.07. 20:00 1020 m 7/8 2/8 - - -
Mi, 24.07. 14:00 840 m 8/8 8/8 - - -
Mi, 24.07. 8:00 1500 m 7/8 7/8 - - -
Mi, 24.07. 2:00 3300 m 1/8 1/8 - - -
Di, 23.07. 20:00 300 m 7/8 5/8 - - -
Di, 23.07. 14:00 1380 m 2/8 1/8 - - -
Ortszeit Bedeckungsgrad in Achtel und Wolkenuntergrenze
Do, 25.07. 12:00 1(1170m) 5(10500m)
Do, 25.07. 11:50 1(1170m) 5(10500m)
Do, 25.07. 11:40 6
Do, 25.07. 11:30 3(1140m)
Do, 25.07. 11:20 3(1140m)
Do, 25.07. 11:10 2
Do, 25.07. 11:00 2(1050m) 3(10500m)
Do, 25.07. 10:30 4(10500m)
Do, 25.07. 10:00 1(10500m)
Do, 25.07. 9:30 keine Wolken
Do, 25.07. 9:00 keine Wolken
Ortszeit Luftdruck NN (hPa) Tendenz (hPa in 3 Std.)
Do, 25.07. 8:00 1018 - 0,4
Do, 25.07. 2:00 1019 - 0,2
Mi, 24.07. 20:00 1018 - 0,5
Mi, 24.07. 14:00 1019 0,0
Mi, 24.07. 8:00 1019 + 0,6
Mi, 24.07. 2:00 1017 + 1,0
Di, 23.07. 20:00 1016 + 0,5
Di, 23.07. 14:00 1015 - 1,1
Ortszeit Luftdruck NN (hPa) Tendenz (hPa in 3 Std.)
Do, 25.07. 12:00 1016 - 0,8
Do, 25.07. 11:50 1016 keine Meldung
Do, 25.07. 11:40 1016 keine Meldung
Do, 25.07. 11:30 1016 - 0,7
Do, 25.07. 11:20 1016 keine Meldung
Do, 25.07. 11:10 1016 keine Meldung
Do, 25.07. 11:00 1017 - 0,6
Do, 25.07. 10:30 1017 - 0,5
Do, 25.07. 10:00 1017 - 0,6
Do, 25.07. 9:30 1018 0,0
Do, 25.07. 9:00 1018 - 0,2
Ortszeit Schneehöhe (cm)
Do, 25.07. 8:00 0
Do, 25.07. 2:00 0
Mi, 24.07. 20:00 0
Mi, 24.07. 14:00 0
Mi, 24.07. 8:00 0
Mi, 24.07. 2:00 0
Di, 23.07. 20:00 0
Di, 23.07. 14:00 0
Ortszeit Schneehöhe (cm)
Do, 25.07. 12:00 0
Do, 25.07. 11:50 0
Do, 25.07. 11:40 -
Do, 25.07. 11:30 0
Do, 25.07. 11:20 0
Do, 25.07. 11:10 -
Do, 25.07. 11:00 0
Do, 25.07. 10:30 0
Do, 25.07. 10:00 0
Do, 25.07. 9:30 0
Do, 25.07. 9:00 0
Link zu dieser Seite / Seite empfehlen

Das Wetter in ...